Terminal Aerodrome Forecast
Issued by NWS Quad Cities IA IL

Home | Current Version | Previous Version | Text Only | Print | Product List | Glossary On
Versions: 1 2 3 4 5 6 7 8 9 10 11 12 13 14 15 16 17 18 19 20 21 22 23 24 25 26 27 28 29 30 31 32 33 34 35 36 37 38 39 40 41 42 43 44 45 46 47
659
FTUS43 KDVN 221348 AAD
TAFDBQ
TAF AMD
KDBQ 221348Z 2214/2312 05013KT 1/2SM FG OVC002
      TEMPO 2214/2216 1/4SM -SHRA FG SCT002 OVC005
     FM221700 15012KT P6SM BKN008 OVC020
     FM222300 19005KT 4SM -SHRA BR OVC025
     FM230300 34013KT 2SM -SN BR OVC006=

USA.gov is the U.S. government's official web portal to all federal, state and local government web resources and services.